Time;durP1;ratioP1;P1;durP2;ratioP2;P2;SDS_P1;SDS_P2;PMS_P1;PMS_P2;Temp;Humidity;BMP_temperature;BMP_pressure;BME280_temperature;BME280_humidity;BME280_pressure;Samples;Min_cycle;Max_cycle;Signal;HPM_P1;HPM_P2
2021/03/09 00:02:07;;;;;;;33.35;27.23;;;;;;;-0.85;100.00;101267.22;4972522;28;20448;-76
2021/03/09 00:04:32;;;;;;;29.38;25.83;;;;;;;-0.94;100.00;101281.78;4983218;28;20030;-75
2021/03/09 00:06:58;;;;;;;38.80;35.20;;;;;;;-0.90;100.00;101285.84;4966586;28;20113;-75
2021/03/09 00:09:23;;;;;;;38.67;34.30;;;;;;;-0.77;100.00;101289.16;4986895;28;20027;-75
2021/03/09 00:11:49;;;;;;;40.30;36.10;;;;;;;-0.42;100.00;101290.81;4987708;28;20454;-75
2021/03/09 00:14:14;;;;;;;42.05;36.97;;;;;;;-0.20;100.00;101292.56;4974873;28;20368;-76
2021/03/09 00:16:40;;;;;;;55.17;46.10;;;;;;;-0.20;100.00;101305.59;4989710;28;20050;-75
2021/03/09 00:19:05;;;;;;;49.60;44.05;;;;;;;-0.23;100.00;101305.84;4989761;28;20083;-76
2021/03/09 00:21:31;;;;;;;40.38;31.58;;;;;;;-0.37;100.00;101309.53;4973175;28;20143;-75
2021/03/09 00:23:56;;;;;;;38.95;34.13;;;;;;;-0.23;100.00;101311.06;4973453;28;20042;-75
2021/03/09 00:26:21;;;;;;;39.65;35.85;;;;;;;-0.14;100.00;101310.34;4992837;28;20030;-75
2021/03/09 00:28:47;;;;;;;38.28;34.03;;;;;;;-0.31;100.00;101306.44;4992309;28;20080;-75
2021/03/09 00:31:12;;;;;;;32.25;28.30;;;;;;;-0.44;100.00;101310.97;4989403;28;20485;-75
2021/03/09 00:33:38;;;;;;;36.58;29.15;;;;;;;-0.15;100.00;101316.53;4977056;28;20101;-75
2021/03/09 00:36:03;;;;;;;41.90;35.00;;;;;;;-0.16;100.00;101324.47;4976849;28;20018;-75
2021/03/09 00:38:29;;;;;;;42.03;35.65;;;;;;;-0.15;100.00;101326.97;4990893;28;20038;-75
2021/03/09 00:40:54;;;;;;;41.65;36.17;;;;;;;0.13;100.00;101333.44;4985934;28;20022;-75
2021/03/09 00:43:20;;;;;;;38.33;33.58;;;;;;;0.15;100.00;101336.75;4976623;28;20030;-75
2021/03/09 00:45:45;;;;;;;37.78;30.92;;;;;;;0.26;100.00;101333.28;4991439;28;20022;-75
2021/03/09 00:48:10;;;;;;;36.08;32.40;;;;;;;1.01;100.00;101336.72;4976483;28;20037;-75
2021/03/09 00:50:36;;;;;;;35.70;32.05;;;;;;;1.13;100.00;101348.78;4976407;28;20030;-75
2021/03/09 00:53:01;;;;;;;34.80;30.95;;;;;;;0.73;100.00;101339.03;4972533;28;20030;-75
2021/03/09 00:55:27;;;;;;;38.13;34.03;;;;;;;0.61;100.00;101350.50;4976335;28;20030;-75
2021/03/09 00:57:57;;;;;;;40.75;36.85;;;;;;;0.52;100.00;101346.03;4972804;28;20014;-75
2021/03/09 01:00:23;;;;;;;41.25;37.17;;;;;;;0.45;100.00;101350.91;4987116;28;20499;-75
2021/03/09 01:02:48;;;;;;;38.20;34.47;;;;;;;0.44;100.00;101352.69;4990940;28;20065;-75
2021/03/09 01:05:14;;;;;;;40.85;34.58;;;;;;;0.31;100.00;101352.03;4993745;28;20466;-76
2021/03/09 01:07:39;;;;;;;42.90;38.70;;;;;;;0.22;100.00;101348.38;4974250;28;20022;-76
2021/03/09 01:10:05;;;;;;;42.72;38.38;;;;;;;0.21;100.00;101346.72;4983284;28;20109;-75
2021/03/09 01:12:31;;;;;;;42.47;38.63;;;;;;;0.13;100.00;101343.88;4971187;28;20060;-76
2021/03/09 01:14:56;;;;;;;43.95;39.42;;;;;;;0.14;100.00;101339.47;4973175;28;20026;-75
2021/03/09 01:17:22;;;;;;;44.72;40.25;;;;;;;0.06;100.00;101339.25;4973163;28;20041;-76
2021/03/09 01:19:47;;;;;;;45.42;40.58;;;;;;;0.10;100.00;101335.47;4969685;28;20050;-76
2021/03/09 01:22:12;;;;;;;40.85;36.95;;;;;;;0.17;100.00;101334.00;4976048;28;20109;-76
2021/03/09 01:24:38;;;;;;;44.20;40.00;;;;;;;-0.02;100.00;101339.88;4972885;28;20034;-75
2021/03/09 01:27:03;;;;;;;45.75;41.00;;;;;;;-0.06;100.00;101330.59;4967684;28;20027;-75
2021/03/09 01:29:29;;;;;;;42.03;37.42;;;;;;;-0.02;100.00;101335.47;4988239;28;20031;-75
2021/03/09 01:31:54;;;;;;;43.00;38.85;;;;;;;0.03;100.00;101334.28;4991355;28;20037;-75
2021/03/09 01:34:20;;;;;;;44.25;39.53;;;;;;;-0.11;100.00;101330.16;4994272;28;20026;-75
2021/03/09 01:36:45;;;;;;;45.40;40.72;;;;;;;-0.13;100.00;101332.88;4988825;28;20352;-75
2021/03/09 01:39:12;;;;;;;46.72;42.15;;;;;;;-0.12;100.00;101336.31;4970448;28;20034;-76
2021/03/09 01:41:38;;;;;;;40.88;36.33;;;;;;;-0.22;100.00;101330.19;4987585;28;20066;-76
2021/03/09 01:44:04;;;;;;;42.63;35.40;;;;;;;-0.28;100.00;101332.31;4970275;28;20049;-75
2021/03/09 01:46:31;;;;;;;42.90;38.35;;;;;;;-0.44;100.00;101326.63;4969262;28;20022;-75
2021/03/09 01:48:56;;;;;;;44.85;39.85;;;;;;;-0.43;100.00;101336.13;4973293;28;20121;-75
2021/03/09 01:51:22;;;;;;;50.88;41.30;;;;;;;-0.49;100.00;101328.75;4972171;28;20113;-75
2021/03/09 01:53:48;;;;;;;104.45;61.97;;;;;;;-0.47;100.00;101332.09;4965518;28;20495;-75
2021/03/09 01:56:14;;;;;;;61.10;46.45;;;;;;;-0.64;100.00;101332.56;4973469;28;20026;-75
2021/03/09 01:58:44;;;;;;;44.50;39.95;;;;;;;-0.61;100.00;101338.38;4988438;28;20366;-75
2021/03/09 02:01:09;;;;;;;45.33;40.50;;;;;;;-0.73;100.00;101352.34;4984914;28;20431;-75
2021/03/09 02:03:35;;;;;;;106.55;56.75;;;;;;;-0.94;100.00;101352.19;4974524;28;20106;-75
2021/03/09 02:06:01;;;;;;;59.08;40.00;;;;;;;-1.34;100.00;101352.56;4971668;28;20026;-75
2021/03/09 02:08:26;;;;;;;66.30;38.55;;;;;;;-1.17;100.00;101359.97;4964944;28;20038;-75
2021/03/09 02:10:53;;;;;;;41.33;30.15;;;;;;;-0.97;100.00;101363.72;4974448;28;20085;-75
2021/03/09 02:13:34;;;;;;;39.75;32.20;;;;;;;-0.95;100.00;101358.38;4984039;28;20101;-75
2021/03/09 02:16:08;;;;;;;39.53;31.20;;;;;;;-0.91;100.00;101367.63;4974648;28;20117;-75
2021/03/09 02:19:11;;;;;;;41.22;36.92;;;;;;;-0.85;100.00;101368.94;4967447;28;20529;-75
2021/03/09 02:21:58;;;;;;;46.97;40.15;;;;;;;-1.00;100.00;101374.38;4980061;28;20026;-75
2021/03/09 02:25:05;;;;;;;40.33;36.00;;;;;;;-0.87;100.00;101370.84;4970137;28;20439;-75
2021/03/09 02:27:44;;;;;;;39.25;35.33;;;;;;;-0.87;100.00;101383.88;4968700;28;20037;-75
2021/03/09 02:30:25;;;;;;;35.90;31.52;;;;;;;-0.81;100.00;101386.03;4972481;28;20046;-75
2021/03/09 02:33:00;;;;;;;39.33;35.38;;;;;;;-0.87;100.00;101389.09;4969088;28;20030;-75
2021/03/09 02:35:29;;;;;;;37.88;34.22;;;;;;;-0.81;100.00;101399.91;4976005;28;20038;-75
2021/03/09 02:37:59;;;;;;;37.20;33.65;;;;;;;-0.81;100.00;101407.72;4956177;28;20450;-75
2021/03/09 02:40:27;;;;;;;36.75;33.55;;;;;;;-0.79;100.00;101410.22;4991674;28;20049;-75
2021/03/09 02:43:00;;;;;;;36.55;32.95;;;;;;;-0.85;100.00;101410.66;4973427;28;20030;-75
2021/03/09 02:45:28;;;;;;;39.42;33.95;;;;;;;-1.02;100.00;101402.34;4980565;28;20478;-75
2021/03/09 02:47:54;;;;;;;32.53;24.95;;;;;;;-0.99;100.00;101416.94;4976754;28;20161;-75
2021/03/09 02:50:23;;;;;;;40.03;35.78;;;;;;;-1.13;100.00;101422.31;4962212;28;20038;-75
2021/03/09 02:52:53;;;;;;;39.58;35.55;;;;;;;-1.26;100.00;101423.22;4977223;28;20176;-75
2021/03/09 02:55:20;;;;;;;39.03;35.33;;;;;;;-1.20;100.00;101421.94;4970646;28;20093;-75
2021/03/09 02:57:48;;;;;;;40.08;36.25;;;;;;;-1.16;100.00;101429.41;4977461;28;20038;-75
2021/03/09 03:01:06;;;;;;;34.20;30.70;;;;;;;-1.21;100.00;101433.28;4978709;28;20022;-75
2021/03/09 03:03:33;;;;;;;26.42;22.30;;;;;;;-1.24;100.00;101429.16;4977122;28;20022;-76
2021/03/09 03:06:00;;;;;;;26.27;23.98;;;;;;;-1.14;100.00;101433.72;4980347;28;20205;-75
2021/03/09 03:08:28;;;;;;;23.70;21.08;;;;;;;-0.90;100.00;101441.50;4990911;28;20026;-75
2021/03/09 03:10:56;;;;;;;26.77;24.05;;;;;;;-1.06;100.00;101444.38;4987812;28;20037;-76
2021/03/09 03:13:23;;;;;;;32.00;29.20;;;;;;;-1.13;100.00;101451.00;4969788;28;20390;-75
2021/03/09 03:15:51;;;;;;;30.42;27.48;;;;;;;-1.19;100.00;101454.88;4987603;28;20188;-75
2021/03/09 03:18:18;;;;;;;30.02;27.33;;;;;;;-1.19;100.00;101450.50;4974381;28;20045;-75
2021/03/09 03:20:47;;;;;;;26.85;24.35;;;;;;;-1.26;100.00;101451.06;4979114;28;20598;-75
2021/03/09 03:23:14;;;;;;;25.92;23.63;;;;;;;-1.27;100.00;101454.59;4983406;28;20034;-76
2021/03/09 03:25:42;;;;;;;29.52;26.95;;;;;;;-1.38;100.00;101455.38;4975671;28;20121;-75
2021/03/09 03:28:09;;;;;;;25.02;22.63;;;;;;;-1.44;100.00;101458.44;4974919;28;20053;-75
2021/03/09 03:30:36;;;;;;;25.20;22.80;;;;;;;-1.45;100.00;101456.78;4972913;28;20027;-75
2021/03/09 03:33:02;;;;;;;23.38;18.15;;;;;;;-1.53;100.00;101472.94;4992871;28;20030;-75
2021/03/09 03:35:28;;;;;;;21.25;17.67;;;;;;;-1.55;100.00;101481.81;4989988;28;20049;-76
2021/03/09 03:37:54;;;;;;;27.60;25.08;;;;;;;-1.90;100.00;101482.53;4976528;28;20391;-75
2021/03/09 03:40:21;;;;;;;21.92;19.73;;;;;;;-1.69;100.00;101475.81;4977279;28;20084;-75
2021/03/09 03:42:47;;;;;;;23.45;20.88;;;;;;;-1.53;100.00;101493.78;4972448;28;20045;-75
2021/03/09 03:45:16;;;;;;;21.63;18.40;;;;;;;-1.78;100.00;101493.88;4989648;28;20478;-75
2021/03/09 03:47:42;;;;;;;28.88;20.55;;;;;;;-1.93;100.00;101490.53;4987311;28;20034;-75
2021/03/09 03:50:11;;;;;;;28.50;21.77;;;;;;;-2.11;100.00;101497.84;4974593;28;20018;-75
2021/03/09 03:52:50;;;;;;;30.75;22.55;;;;;;;-2.31;100.00;101496.56;4982885;28;20030;-75
2021/03/09 03:55:49;;;;;;;33.15;20.23;;;;;;;-2.17;100.00;101508.69;4991015;28;20038;-75
2021/03/09 03:58:27;;;;;;;29.55;17.65;;;;;;;-2.55;100.00;101507.69;4985051;28;20072;-75
2021/03/09 04:00:53;;;;;;;25.88;19.00;;;;;;;-2.81;100.00;101521.59;4980489;28;20379;-76
2021/03/09 04:03:19;;;;;;;30.13;19.10;;;;;;;-2.64;100.00;101516.09;4994259;28;20116;-76
2021/03/09 04:05:48;;;;;;;33.90;22.60;;;;;;;-2.64;100.00;101516.09;4993324;28;20467;-75
2021/03/09 04:08:14;;;;;;;27.50;23.08;;;;;;;-2.79;100.00;101524.91;4967686;28;20402;-76
2021/03/09 04:10:41;;;;;;;23.95;21.15;;;;;;;-2.81;100.00;101526.78;4971882;28;20414;-75
2021/03/09 04:13:07;;;;;;;27.35;20.27;;;;;;;-2.78;100.00;101535.22;4973352;28;20055;-75
2021/03/09 04:15:34;;;;;;;23.55;20.85;;;;;;;-2.77;100.00;101536.88;4974436;28;20043;-75
2021/03/09 04:18:03;;;;;;;25.98;23.42;;;;;;;-2.93;100.00;101533.59;4972758;28;20084;-75
2021/03/09 04:20:29;;;;;;;25.58;22.17;;;;;;;-2.91;100.00;101531.72;4974952;28;20034;-75
2021/03/09 04:22:56;;;;;;;20.85;17.25;;;;;;;-2.92;100.00;101537.88;4969316;28;20026;-75
2021/03/09 04:25:22;;;;;;;23.38;17.40;;;;;;;-3.22;100.00;101540.66;4974208;28;20030;-75
2021/03/09 04:27:48;;;;;;;23.38;17.85;;;;;;;-3.50;100.00;101536.34;4971938;28;20537;-75
2021/03/09 04:30:14;;;;;;;24.70;17.17;;;;;;;-3.52;100.00;101541.63;4974655;28;20495;-75
2021/03/09 04:32:40;;;;;;;33.35;30.25;;;;;;;-3.49;100.00;101541.44;4983691;28;20061;-75
2021/03/09 04:35:06;;;;;;;30.95;27.95;;;;;;;-3.36;100.00;101540.66;4973278;28;20120;-76
2021/03/09 04:37:32;;;;;;;32.50;29.40;;;;;;;-3.58;100.00;101544.59;4974700;28;20034;-75
2021/03/09 04:39:58;;;;;;;32.55;29.25;;;;;;;-3.89;100.00;101548.22;4984652;28;20045;-75
2021/03/09 04:42:24;;;;;;;32.58;29.02;;;;;;;-3.80;100.00;101552.03;4992093;28;20061;-75
2021/03/09 04:44:50;;;;;;;33.53;30.23;;;;;;;-3.98;100.00;101548.78;4987622;28;20024;-75
2021/03/09 04:47:17;;;;;;;33.45;29.95;;;;;;;-3.78;100.00;101553.63;4989085;28;20045;-76
2021/03/09 04:49:43;;;;;;;29.95;27.00;;;;;;;-3.69;100.00;101558.25;4990542;28;20030;-75
2021/03/09 04:52:11;;;;;;;30.33;27.42;;;;;;;-3.54;100.00;101550.44;4984391;28;20041;-76
2021/03/09 04:54:37;;;;;;;22.20;16.27;;;;;;;-3.87;100.00;101543.78;4971656;28;20073;-75
2021/03/09 04:57:03;;;;;;;22.30;15.60;;;;;;;-4.22;100.00;101546.69;4985349;28;20055;-75
2021/03/09 04:59:28;;;;;;;22.42;15.55;;;;;;;-4.13;100.00;101554.88;4988914;28;20034;-76
2021/03/09 05:01:53;;;;;;;20.83;14.75;;;;;;;-4.04;100.00;101556.94;4982625;28;20443;-75
2021/03/09 05:04:19;;;;;;;23.20;15.68;;;;;;;-3.93;100.00;101557.97;4978601;28;20031;-75
2021/03/09 05:06:45;;;;;;;27.55;18.38;;;;;;;-3.77;100.00;101563.06;4968698;28;20120;-75
2021/03/09 05:09:11;;;;;;;51.88;32.15;;;;;;;-3.94;100.00;101565.81;4967355;28;20414;-75
2021/03/09 05:11:36;;;;;;;54.75;29.83;;;;;;;-3.96;100.00;101567.69;4969240;28;20092;-75
2021/03/09 05:14:02;;;;;;;63.28;36.42;;;;;;;-3.74;100.00;101562.88;4975914;28;20061;-75
2021/03/09 05:16:27;;;;;;;76.40;38.55;;;;;;;-3.67;100.00;101559.91;4976211;28;20310;-75
2021/03/09 05:18:53;;;;;;;70.00;38.97;;;;;;;-3.61;100.00;101562.97;4981329;28;20027;-75
2021/03/09 05:21:20;;;;;;;62.58;39.85;;;;;;;-3.59;100.00;101565.47;4983048;28;20038;-75
2021/03/09 05:23:49;;;;;;;60.42;38.17;;;;;;;-3.49;100.00;101570.00;4977762;28;20030;-75
2021/03/09 05:26:14;;;;;;;57.92;38.28;;;;;;;-3.45;100.00;101565.44;4977738;28;20047;-75
2021/03/09 05:28:40;;;;;;;55.95;38.55;;;;;;;-3.28;100.00;101570.44;4983270;28;20026;-75
2021/03/09 05:31:05;;;;;;;65.60;46.28;;;;;;;-3.24;100.00;101565.88;4976688;28;20038;-75
2021/03/09 05:33:30;;;;;;;96.00;70.55;;;;;;;-2.96;100.00;101558.97;4977637;28;20037;-75
2021/03/09 05:35:56;;;;;;;64.63;39.45;;;;;;;-3.03;100.00;101574.09;4929954;28;20050;-75
2021/03/09 05:38:21;;;;;;;60.45;35.10;;;;;;;-3.13;100.00;101579.03;4979900;28;20105;-75
2021/03/09 05:40:47;;;;;;;51.70;32.92;;;;;;;-2.72;100.00;101579.94;4976982;28;20469;-75
2021/03/09 05:43:13;;;;;;;52.45;30.15;;;;;;;-2.39;100.00;101590.78;4982594;28;20451;-75
2021/03/09 05:45:40;;;;;;;73.68;40.60;;;;;;;-2.25;100.00;101587.25;4965483;28;20050;-75
2021/03/09 05:48:06;;;;;;;94.55;47.72;;;;;;;-2.37;100.00;101588.06;4970428;28;20030;-75
2021/03/09 05:50:31;;;;;;;114.82;54.30;;;;;;;-2.14;100.00;101590.00;4968998;28;20125;-75
2021/03/09 05:52:57;;;;;;;73.68;42.95;;;;;;;-1.71;100.00;101599.28;4966071;28;20125;-75
2021/03/09 05:55:22;;;;;;;42.22;28.13;;;;;;;-1.70;100.00;101593.94;4989263;28;20169;-75
2021/03/09 05:57:48;;;;;;;45.15;34.80;;;;;;;-1.62;100.00;101602.09;4971281;28;20061;-75
2021/03/09 06:00:14;;;;;;;37.03;27.13;;;;;;;-1.29;100.00;101605.91;4971959;28;20038;-75
2021/03/09 06:02:40;;;;;;;50.05;33.53;;;;;;;-1.28;100.00;101604.97;4990627;28;20037;-75
2021/03/09 06:05:08;;;;;;;35.13;25.95;;;;;;;-1.06;100.00;101606.06;4967442;28;20044;-76
2021/03/09 06:07:37;;;;;;;33.75;23.98;;;;;;;-1.00;100.00;101608.22;4973639;28;20038;-76
2021/03/09 06:10:04;;;;;;;23.30;20.10;;;;;;;-0.75;100.00;101623.81;4960446;28;20518;-75
2021/03/09 06:12:29;;;;;;;24.10;21.38;;;;;;;-0.56;100.00;101625.91;4965781;28;20455;-75
2021/03/09 06:14:55;;;;;;;24.33;21.75;;;;;;;-0.63;100.00;101632.53;4983779;28;20078;-75
2021/03/09 06:17:26;;;;;;;21.77;18.63;;;;;;;-0.28;100.00;101631.72;4975271;28;20097;-75
2021/03/09 06:19:52;;;;;;;22.60;20.67;;;;;;;0.14;100.00;101640.75;4986894;28;20454;-75
2021/03/09 06:22:20;;;;;;;18.40;17.00;;;;;;;0.02;100.00;101636.44;4972502;28;20034;-75
2021/03/09 06:24:47;;;;;;;22.33;20.52;;;;;;;0.05;100.00;101625.78;4973196;28;20033;-75
2021/03/09 06:27:25;;;;;;;17.95;16.55;;;;;;;0.10;100.00;101625.44;4967657;28;20034;-75
2021/03/09 06:29:52;;;;;;;18.92;17.33;;;;;;;0.37;100.00;101623.34;4987019;28;20041;-75
2021/03/09 06:32:17;;;;;;;18.98;17.58;;;;;;;0.39;100.00;101617.97;4972890;28;20030;-75
2021/03/09 06:34:42;;;;;;;17.73;16.52;;;;;;;0.33;100.00;101628.91;4967218;28;20378;-75
2021/03/09 06:37:24;;;;;;;21.05;19.35;;;;;;;0.60;100.00;101633.78;4984055;28;20035;-75
2021/03/09 06:39:58;;;;;;;21.00;18.45;;;;;;;2.51;100.00;101630.47;4964236;28;20096;-75
2021/03/09 06:42:42;;;;;;;22.52;20.90;;;;;;;5.29;100.00;101637.56;4983959;28;20463;-75
2021/03/09 06:45:12;;;;;;;21.98;20.52;;;;;;;1.84;100.00;101635.19;5002273;28;20018;-73
2021/03/09 06:47:48;;;;;;;21.27;19.98;;;;;;;0.97;100.00;101639.63;4968948;28;20030;-73
2021/03/09 06:50:19;;;;;;;23.23;21.63;;;;;;;1.21;100.00;101641.22;4977135;28;20042;-73
2021/03/09 06:53:05;;;;;;;23.40;21.67;;;;;;;1.49;100.00;101638.06;4986606;28;20038;-74
2021/03/09 06:55:32;;;;;;;24.70;22.77;;;;;;;1.78;100.00;101635.69;4975678;28;20069;-73
2021/03/09 06:58:11;;;;;;;28.50;26.02;;;;;;;2.10;100.00;101639.22;4969320;28;20031;-73
2021/03/09 07:00:37;;;;;;;20.38;18.98;;;;;;;1.47;100.00;101636.53;4980269;28;20034;-73
2021/03/09 07:03:02;;;;;;;19.75;18.45;;;;;;;1.76;100.00;101631.56;4972918;28;20044;-73
2021/03/09 07:05:28;;;;;;;20.17;18.52;;;;;;;2.00;100.00;101637.38;4992468;28;20527;-73
2021/03/09 07:07:53;;;;;;;20.88;19.55;;;;;;;1.94;100.00;101637.06;4972622;28;20037;-73
2021/03/09 07:10:20;;;;;;;20.80;19.38;;;;;;;1.88;100.00;101645.44;4982785;28;20038;-73
2021/03/09 07:12:47;;;;;;;21.92;20.58;;;;;;;2.89;100.00;101648.19;4988193;28;20053;-73
2021/03/09 07:15:15;;;;;;;21.88;20.50;;;;;;;2.23;100.00;101642.47;4982840;28;20031;-73
2021/03/09 07:17:42;;;;;;;21.20;19.90;;;;;;;1.91;100.00;101634.69;4963881;28;20088;-73
2021/03/09 07:20:09;;;;;;;21.77;20.42;;;;;;;2.49;100.00;101646.34;4976466;28;20065;-73
2021/03/09 07:22:39;;;;;;;22.52;21.02;;;;;;;2.81;100.00;101644.56;5003192;28;20033;-73
2021/03/09 07:25:12;;;;;;;24.33;22.60;;;;;;;2.51;100.00;101640.97;4966903;28;20061;-73
2021/03/09 07:27:56;;;;;;;24.60;22.73;;;;;;;2.94;100.00;101635.50;4971566;28;20097;-73
2021/03/09 07:30:24;;;;;;;24.10;22.50;;;;;;;2.69;100.00;101633.31;4971430;28;20050;-73
2021/03/09 07:32:52;;;;;;;24.67;22.85;;;;;;;3.39;100.00;101649.97;4973131;28;20486;-74
2021/03/09 07:35:20;;;;;;;24.23;22.73;;;;;;;2.94;100.00;101625.00;4992881;28;20026;-73
2021/03/09 07:37:46;;;;;;;24.85;22.95;;;;;;;2.96;100.00;101623.06;4988752;28;20029;-74
2021/03/09 07:40:33;;;;;;;25.50;23.35;;;;;;;3.21;100.00;101616.50;4986253;28;20034;-73
2021/03/09 07:42:59;;;;;;;24.25;22.67;;;;;;;3.31;100.00;101615.69;4971616;28;20431;-74
2021/03/09 07:45:45;;;;;;;23.48;21.77;;;;;;;3.20;100.00;101614.81;4975926;28;20118;-74
2021/03/09 07:48:19;;;;;;;26.85;24.90;;;;;;;3.44;100.00;101605.72;4971986;28;20038;-73
2021/03/09 07:50:46;;;;;;;24.65;23.05;;;;;;;4.05;100.00;101623.81;4991153;28;20037;-73
2021/03/09 07:53:14;;;;;;;26.77;24.60;;;;;;;4.18;100.00;101618.25;4984993;28;20441;-73
2021/03/09 07:56:09;;;;;;;27.58;25.58;;;;;;;3.84;100.00;101617.88;4983512;28;20483;-73
2021/03/09 07:58:34;;;;;;;28.42;26.35;;;;;;;4.83;100.00;101619.13;4983765;28;20041;-74
2021/03/09 08:01:03;;;;;;;27.63;25.52;;;;;;;4.12;100.00;101617.03;4967720;28;20031;-73
2021/03/09 08:03:40;;;;;;;26.23;24.48;;;;;;;4.74;100.00;101620.00;4987841;28;20121;-73
2021/03/09 08:06:11;;;;;;;27.13;25.05;;;;;;;4.28;100.00;101613.81;4973816;28;20070;-74
2021/03/09 08:08:55;;;;;;;26.85;24.85;;;;;;;4.26;100.00;101623.63;4981940;28;20034;-73
2021/03/09 08:11:24;;;;;;;27.80;25.90;;;;;;;5.09;100.00;101626.34;4967387;28;20124;-73
2021/03/09 08:14:09;;;;;;;29.25;27.15;;;;;;;5.40;100.00;101621.56;4970659;28;20060;-74
2021/03/09 08:16:39;;;;;;;28.80;26.70;;;;;;;4.74;100.00;101622.63;4971731;28;20041;-73
2021/03/09 08:19:12;;;;;;;30.55;28.25;;;;;;;5.74;100.00;101616.41;4968291;28;20057;-73
2021/03/09 08:21:51;;;;;;;26.95;25.02;;;;;;;4.91;100.00;101618.41;4972948;28;20041;-74
2021/03/09 08:24:19;;;;;;;27.90;25.70;;;;;;;4.92;100.00;101611.31;4987168;28;20042;-74
2021/03/09 08:26:46;;;;;;;26.00;24.15;;;;;;;4.72;100.00;101614.06;4968878;28;20038;-74
2021/03/09 08:29:44;;;;;;;30.73;28.45;;;;;;;5.24;100.00;101601.16;4984217;28;20034;-73
2021/03/09 08:32:27;;;;;;;29.52;27.30;;;;;;;5.60;100.00;101606.44;4933995;28;20080;-73
2021/03/09 08:35:11;;;;;;;26.95;25.33;;;;;;;6.21;100.00;101610.03;4971486;28;20034;-74
2021/03/09 08:37:36;;;;;;;28.55;26.27;;;;;;;6.03;100.00;101606.63;4980933;28;20042;-73
2021/03/09 08:40:13;;;;;;;27.92;25.90;;;;;;;6.16;100.00;101614.94;4987673;28;20093;-74
2021/03/09 08:43:03;;;;;;;27.33;25.55;;;;;;;5.48;100.00;101612.91;4972242;28;20030;-73
2021/03/09 08:45:43;;;;;;;26.67;24.58;;;;;;;6.34;100.00;101614.91;4964687;28;20041;-73
2021/03/09 08:48:10;;;;;;;31.23;28.83;;;;;;;7.03;100.00;101608.59;4970444;28;20049;-73
2021/03/09 08:50:46;;;;;;;27.50;25.45;;;;;;;6.88;96.55;101612.84;4983013;28;20108;-73
2021/03/09 08:53:32;;;;;;;28.33;26.33;;;;;;;6.61;100.00;101603.31;4981634;28;20120;-73
2021/03/09 08:55:58;;;;;;;28.88;26.98;;;;;;;6.95;100.00;101605.09;4970428;28;20041;-73
2021/03/09 08:58:25;;;;;;;28.63;26.40;;;;;;;6.92;99.62;101600.13;4978718;28;20038;-74
2021/03/09 09:00:51;;;;;;;27.73;25.95;;;;;;;7.65;95.39;101604.72;4966548;28;20065;-73
2021/03/09 09:03:36;;;;;;;27.58;25.58;;;;;;;7.82;91.45;101616.97;4983630;28;20061;-74
2021/03/09 09:06:02;;;;;;;28.83;26.75;;;;;;;6.31;96.29;101628.41;4972089;28;20038;-73
2021/03/09 09:08:29;;;;;;;29.40;27.35;;;;;;;6.55;95.26;101625.91;4962487;28;20043;-74
2021/03/09 09:10:54;;;;;;;28.92;26.92;;;;;;;7.22;94.17;101622.50;4956141;28;20031;-73
2021/03/09 09:13:34;;;;;;;28.63;26.58;;;;;;;7.61;91.26;101614.00;4968342;28;20133;-74
2021/03/09 09:16:01;;;;;;;30.23;28.02;;;;;;;8.68;86.01;101620.78;4987171;28;20490;-73
2021/03/09 09:18:27;;;;;;;26.95;25.20;;;;;;;8.05;82.73;101614.47;4963418;28;20033;-73
2021/03/09 09:20:54;;;;;;;28.65;25.83;;;;;;;8.74;84.26;101616.63;4980388;28;20018;-74
2021/03/09 09:23:27;;;;;;;27.83;25.90;;;;;;;8.71;87.39;101623.94;4986496;28;20099;-73
2021/03/09 09:26:00;;;;;;;27.95;26.00;;;;;;;8.00;84.68;101614.16;4981947;28;20029;-73
2021/03/09 09:28:33;;;;;;;28.00;25.80;;;;;;;8.19;83.97;101619.06;4962870;28;20053;-73
2021/03/09 09:31:10;;;;;;;28.63;26.65;;;;;;;6.69;89.71;101618.34;4971545;28;20042;-73
2021/03/09 09:33:36;;;;;;;28.08;25.88;;;;;;;6.60;93.60;101612.25;4964509;28;20454;-73
2021/03/09 09:36:02;;;;;;;30.50;28.30;;;;;;;6.87;94.79;101611.19;4980589;28;20066;-73
2021/03/09 09:38:28;;;;;;;32.25;29.45;;;;;;;7.40;90.64;101620.56;4985382;28;20040;-73
2021/03/09 09:41:00;;;;;;;28.33;26.23;;;;;;;6.67;93.46;101617.72;4963098;28;20409;-74
2021/03/09 09:44:33;;;;;;;29.23;27.20;;;;;;;6.37;94.21;101615.41;4964905;28;20521;-73
2021/03/09 09:46:58;;;;;;;29.70;27.60;;;;;;;7.72;88.23;101611.03;4941681;28;20522;-73
2021/03/09 09:49:24;;;;;;;30.33;28.30;;;;;;;7.80;83.92;101606.53;4986378;28;20030;-74
2021/03/09 09:51:49;;;;;;;30.67;28.50;;;;;;;8.02;85.38;101615.63;4981717;28;20034;-74
2021/03/09 09:54:15;;;;;;;28.95;26.65;;;;;;;7.60;85.87;101605.25;4971779;28;20462;-74
2021/03/09 09:56:40;;;;;;;32.03;29.83;;;;;;;7.97;83.48;101619.78;4970452;28;20425;-73
2021/03/09 09:59:06;;;;;;;29.52;27.33;;;;;;;7.83;80.84;101609.84;4963091;28;20455;-73
2021/03/09 10:01:38;;;;;;;31.52;29.02;;;;;;;7.62;91.88;101607.69;4983118;28;20370;-74
2021/03/09 10:04:11;;;;;;;29.55;27.60;;;;;;;8.33;80.71;101614.91;4987641;28;20037;-74
2021/03/09 10:06:39;;;;;;;29.65;27.33;;;;;;;8.17;88.75;101618.44;4987997;28;20030;-74
2021/03/09 10:09:14;;;;;;;29.70;27.48;;;;;;;8.27;79.41;101611.13;4970767;28;20391;-74
2021/03/09 10:11:48;;;;;;;30.00;27.80;;;;;;;8.76;79.44;101606.69;4966141;28;20026;-74
2021/03/09 10:14:14;;;;;;;30.33;27.85;;;;;;;7.76;81.80;101599.94;4968861;28;20160;-73
2021/03/09 10:16:42;;;;;;;31.63;29.23;;;;;;;8.33;80.76;101606.97;4956902;28;20526;-74
2021/03/09 10:19:15;;;;;;;30.70;28.08;;;;;;;7.13;82.81;101602.34;4973032;28;20041;-74
2021/03/09 10:21:41;;;;;;;30.58;28.17;;;;;;;8.07;86.50;101599.25;4968257;28;20033;-74
2021/03/09 10:24:07;;;;;;;32.80;30.13;;;;;;;8.53;83.69;101602.13;4971084;28;20125;-74
2021/03/09 10:26:41;;;;;;;32.28;29.88;;;;;;;8.41;84.96;101608.78;4978727;28;20460;-74
2021/03/09 10:29:18;;;;;;;34.40;31.90;;;;;;;8.04;77.60;101604.88;4975561;28;20069;-74
2021/03/09 10:32:00;;;;;;;32.30;30.08;;;;;;;8.33;81.14;101593.75;4968270;28;20030;-73
2021/03/09 10:34:44;;;;;;;34.42;31.83;;;;;;;9.66;74.09;101598.22;4959680;28;20061;-73
2021/03/09 10:37:12;;;;;;;35.20;32.38;;;;;;;9.43;73.77;101599.03;4971042;28;20096;-73
2021/03/09 10:39:54;;;;;;;32.30;29.90;;;;;;;9.32;73.84;101599.41;4971477;28;20030;-74
2021/03/09 10:42:37;;;;;;;32.72;30.20;;;;;;;9.54;71.56;101589.84;4986271;28;20427;-73
2021/03/09 10:45:19;;;;;;;;;;;;;;;10.16;66.10;101586.13;4965568;28;20042;-73
2021/03/09 10:47:49;;;;;;;34.67;31.98;;;;;;;10.17;62.30;101585.94;4964970;28;19917;-74
2021/03/09 10:50:15;;;;;;;38.30;35.25;;;;;;;10.30;62.61;101582.69;4987575;28;20463;-74
2021/03/09 10:52:40;;;;;;;35.47;32.40;;;;;;;10.02;64.17;101572.66;4952710;28;20030;-73
2021/03/09 10:55:06;;;;;;;36.13;33.30;;;;;;;9.79;63.45;101567.41;4967926;28;20041;-72
2021/03/09 10:57:31;;;;;;;36.20;33.53;;;;;;;9.12;68.65;101569.91;4965849;28;20030;-74
2021/03/09 10:59:57;;;;;;;36.45;33.38;;;;;;;10.34;65.51;101559.25;4964778;28;20069;-74
2021/03/09 11:02:22;;;;;;;36.67;33.15;;;;;;;9.64;65.32;101572.66;4972645;28;20535;-74
2021/03/09 11:04:48;;;;;;;36.08;33.17;;;;;;;8.72;68.44;101566.50;4989937;28;20463;-74
2021/03/09 11:07:13;;;;;;;35.17;32.47;;;;;;;9.75;69.00;101570.59;4989568;28;20033;-74
2021/03/09 11:09:38;;;;;;;35.55;32.63;;;;;;;9.30;61.76;101566.97;4987386;28;20055;-74
2021/03/09 11:12:04;;;;;;;38.05;34.20;;;;;;;9.20;64.58;101553.13;4973543;28;20074;-74
2021/03/09 11:14:30;;;;;;;75.57;47.90;;;;;;;9.91;60.12;101564.31;4970843;28;20062;-74
2021/03/09 11:16:55;;;;;;;33.72;30.80;;;;;;;9.26;66.70;101557.72;4989212;28;20080;-74
2021/03/09 11:19:28;;;;;;;38.03;34.90;;;;;;;9.27;91.04;101556.72;4988232;28;20116;-77